• Join FlightAware (Why Join?)
  • Login
  • US Flag 
10:15AM EDT


 

Airport Tracker/Info


-or-


 

Live Flight TrackerFlight Track Log ✈ EJA922 ✈ 07-Oct-2013 ✈ KHUM - KOKC

Flight Track Log - Related Links

Times and Time Zones

All times are in EDT time to prevent confusion due to time zone crossing. See the EJA922 flight status page for this flight to view local times or setup timezone preferences in your user account.

Time Position Orientation Groundspeed Altitude Reporting Facility
EDT Latitude Longitude Course Direction KTS MPH feet Rate Location/Type
06:51PM 29.6033 -90.6658 352° North 193 222 40,000  Level Houston Center
06:52PM 29.6672 -90.7042 332° Northwest 269 310 7,100 -14,580 Descending Houston Center
06:53PM 29.7283 -90.7486 328° Northwest 261 300 9,900 1,680 Climbing Houston Center
06:54PM 29.8217 -90.8153 328° Northwest 332 382 10,500 1,440 Climbing Houston Center
06:55PM 29.9097 -90.8789 328° Northwest 381 438 12,900 2,040 Climbing Houston Center
06:56PM 30.0031 -90.9456 328° Northwest 392 451 14,700 1,680 Climbing Houston Center
06:57PM 30.1178 -91.0289 328° Northwest 404 465 16,400 1,200 Climbing Houston Center
06:58PM 30.2164 -91.1003 328° Northwest 415 478 17,300 900 Climbing Houston Center
06:59PM 30.3178 -91.1739 328° Northwest 425 489 18,300 960 Climbing Houston Center
07:00PM 30.4206 -91.2481 328° Northwest 433 498 19,300 960 Climbing Houston Center
07:01PM 30.5211 -91.3267 326° Northwest 436 502 20,300 1,020 Climbing Houston Center
07:02PM 30.6283 -91.4283 321° Northwest 436 502 21,500 1,020 Climbing Houston Center
07:03PM 30.7131 -91.5322 314° West 443 510 22,500 900 Climbing Houston Center
07:04PM 30.8000 -91.6361 314° West 447 514 23,400 900 Climbing Houston Center
07:05PM 30.8881 -91.7406 315° West 451 519 24,400 960 Climbing Houston Center
07:06PM 30.9767 -91.8469 314° West 456 525 25,400 960 Climbing Houston Center
07:08PM 31.0667 -91.9558 314° West 465 535 26,400 900 Climbing Houston Center
07:09PM 31.1581 -92.0664 314° West 468 539 27,300 1,020 Climbing Houston Center
07:10PM 31.2675 -92.1994 314° West 476 548 28,500 1,020 Climbing Houston Center
07:11PM 31.3600 -92.3106 314° West 479 551 29,500 960 Climbing Houston Center
07:12PM 31.4528 -92.4233 314° West 482 555 30,500 900 Climbing Houston Center
07:13PM 31.5461 -92.5372 314° West 486 559 31,400 780 Climbing Houston Center
07:14PM 31.6389 -92.6531 313° West 488 562 32,200 600 Climbing Houston Center
07:15PM 31.7328 -92.7678 314° West 489 563 32,700 480 Climbing Houston Center
07:16PM 31.8478 -92.9100 314° West 497 572 33,300 480 Climbing Houston Center
07:17PM 31.9350 -93.0178 314° West 495 570 33,700 300 Climbing Houston Center
07:18PM 32.0303 -93.1361 314° West 496 571 34,000 120 Climbing Houston Center
07:19PM 32.1436 -93.2789 313° West 498 573 34,000  Level Houston Center
07:19PM 32.1978 -93.3431 315° West 495 570 34,000  Level Fort Worth Center
07:20PM 32.2889 -93.4569 313° West 481 554 34,000  Level Fort Worth Center
07:21PM 32.3847 -93.5783 313° West 486 559 34,000  Level Fort Worth Center
07:22PM 32.4800 -93.6997 313° West 494 568 34,000  Level Fort Worth Center
07:23PM 32.5733 -93.8217 312° West 499 574 34,000  Level Fort Worth Center
07:24PM 32.6578 -93.9294 313° West 504 580 34,000  Level Fort Worth Center
07:25PM 32.7531 -94.0542 312° West 504 580 34,000  Level Fort Worth Center
07:26PM 32.8481 -94.1767 313° West 504 580 34,000  Level Fort Worth Center
07:27PM 32.9431 -94.2994 313° West 504 580 34,000  Level Fort Worth Center
07:28PM 33.0381 -94.4225 313° West 504 580 34,000  Level Fort Worth Center
07:29PM 33.1369 -94.5481 313° West 504 580 34,000  Level Fort Worth Center
07:30PM 33.2314 -94.6717 312° West 504 580 34,000  Level Fort Worth Center
07:31PM 33.3239 -94.7956 312° West 504 580 34,000  Level Fort Worth Center
07:32PM 33.4181 -94.9147 313° West 504 580 34,000  Level Fort Worth Center
07:33PM 33.4936 -95.0447 305° West 504 580 34,000  Level Fort Worth Center
07:34PM 33.5692 -95.1847 303° West 499 574 34,000  Level Fort Worth Center
07:35PM 33.6611 -95.3122 311° West 499 574 34,000  Level Fort Worth Center
07:36PM 33.7386 -95.4478 305° West 499 574 34,000  Level Fort Worth Center
07:37PM 33.8178 -95.5783 306° West 494 568 34,000 -300 Level Fort Worth Center
07:38PM 33.9031 -95.7067 309° West 494 568 33,400 -840 Descending Fort Worth Center
07:39PM 33.9903 -95.8428 308° West 499 574 32,400 -1,020 Descending Fort Worth Center
07:40PM 34.0756 -95.9792 307° West 499 574 31,400 -1,080 Descending Fort Worth Center
07:41PM 34.1583 -96.1183 306° West 507 583 30,300 -1,080 Descending Fort Worth Center
07:42PM 34.2453 -96.2578 307° West 513 590 29,300 -1,020 Descending Fort Worth Center
07:43PM 34.3300 -96.3975 306° West 513 590 28,300 -1,080 Descending Fort Worth Center
07:44PM 34.4122 -96.5350 306° West 513 590 27,200 -1,680 Descending Fort Worth Center
07:45PM 34.4967 -96.6703 307° West 513 590 25,000 -2,400 Descending Fort Worth Center
07:46PM 34.5767 -96.8006 307° West 501 577 22,400 -2,700 Descending Fort Worth Center
07:47PM 34.6503 -96.9214 307° West 476 548 19,600 -2,580 Descending Fort Worth Center
07:48PM 34.7236 -97.0422 306° West 461 531 17,300 -2,520 Descending Fort Worth Center
07:49PM 34.7844 -97.1406 307° West 423 487 15,100 -2,760 Descending Fort Worth Center
07:50PM 34.8053 -97.1783 304° West 420 483 14,300 -2,280 Descending Fort Worth Center
07:50PM 34.8639 -97.2667 309° West 425 489 12,400 -2,280 Descending Fort Worth Center
07:51PM 34.8847 -97.2919 315° West 407 468 12,000 -1,320 Descending Fort Worth Center
07:51PM 34.9472 -97.3350 331° Northwest 386 444 11,100 -1,200 Descending Fort Worth Center
07:52PM 34.9683 -97.3503 329° Northwest 319 367 10,800 -1,620 Descending Fort Worth Center
07:53PM 35.0392 -97.3983 331° Northwest 277 319 9,300 -1,740 Descending Fort Worth Center
07:54PM 35.1100 -97.4467 331° Northwest 279 321 7,300 -1,800 Descending Fort Worth Center
07:54PM 35.1664 -97.4822 333° Northwest 293 337 6,000 -1,380 Descending Fort Worth Center
07:55PM 35.1747 -97.4872 334° Northwest 271 312 5,900 -1,320 Descending Fort Worth Center
07:55PM 35.2353 -97.5050 347° North 269 310 4,700 -1,500 Descending Fort Worth Center
07:56PM 35.2436 -97.5100 334° Northwest 249 287 4,400 -720 Descending Fort Worth Center
07:56PM 35.3019 -97.5231 350° North 257 296 4,000 -420 Descending Fort Worth Center
07:57PM 35.3103 -97.5306 324° Northwest 251 289 4,000 -900 Level Fort Worth Center
07:57PM 35.3708 -97.5408 352° North 252 290 3,100 -1,020 Descending Fort Worth Center
07:58PM 35.3833 -97.5433 351° North 239 275 3,000 -600 Descending Fort Worth Center
07:58PM 35.4292 -97.5486 355° North 231 266 2,500 -840 Descending Fort Worth Center
07:59PM 35.4311 -97.5564 287° West 160 184 2,200 -720 Descending Fort Worth Center
07:59PM 35.4292 -97.5894 266° West 131 151 1,800 -540 Descending Fort Worth Center
08:00PM 35.4186 -97.5944 201° Southwest 117 135 1,700 -540 Descending Fort Worth Center
08:00PM 35.4019 -97.5919 173° South 53 61 1,300 17,940 Descending Fort Worth Center
08:01PM 35.3914 -97.6044 224° Southwest 53 61 34,000 16,320 Climbing Fort Worth Center
08:02PM 35.3811 -97.6172 225° Southwest 53 61 34,000  Level Fort Worth Center
08:03PM 35.3706 -97.6300 225° Southwest 53 61 34,000  Level Fort Worth Center
08:05PM 35.3747 -97.6086 39° Northeast  Level FlightAware Approximate